sensor_id;sensor_type;location;lat;lon;timestamp;P1;durP1;ratioP1;P2;durP2;ratioP2
11960;SDS011;6040;49.358;11.140;2023-03-14T00:01:32;1.93;;;1.33;;
11960;SDS011;6040;49.358;11.140;2023-03-14T00:03:59;1.10;;;1.00;;
11960;SDS011;6040;49.358;11.140;2023-03-14T00:06:26;1.03;;;0.93;;
11960;SDS011;6040;49.358;11.140;2023-03-14T00:08:53;1.20;;;1.10;;
11960;SDS011;6040;49.358;11.140;2023-03-14T00:11:20;1.03;;;1.00;;
11960;SDS011;6040;49.358;11.140;2023-03-14T00:13:49;0.80;;;0.80;;
11960;SDS011;6040;49.358;11.140;2023-03-14T00:16:17;1.63;;;1.00;;
11960;SDS011;6040;49.358;11.140;2023-03-14T00:18:44;1.17;;;0.80;;
11960;SDS011;6040;49.358;11.140;2023-03-14T00:21:11;3.00;;;0.90;;
11960;SDS011;6040;49.358;11.140;2023-03-14T00:23:38;1.83;;;0.83;;
11960;SDS011;6040;49.358;11.140;2023-03-14T00:26:07;0.63;;;0.63;;
11960;SDS011;6040;49.358;11.140;2023-03-14T00:28:35;1.33;;;1.10;;
11960;SDS011;6040;49.358;11.140;2023-03-14T00:31:04;1.80;;;0.70;;
11960;SDS011;6040;49.358;11.140;2023-03-14T00:33:32;1.73;;;0.90;;
11960;SDS011;6040;49.358;11.140;2023-03-14T00:36:00;1.30;;;0.70;;
11960;SDS011;6040;49.358;11.140;2023-03-14T00:38:27;0.77;;;0.70;;
11960;SDS011;6040;49.358;11.140;2023-03-14T00:40:55;0.70;;;0.70;;
11960;SDS011;6040;49.358;11.140;2023-03-14T00:43:22;0.73;;;0.60;;
11960;SDS011;6040;49.358;11.140;2023-03-14T00:45:49;0.77;;;0.50;;
11960;SDS011;6040;49.358;11.140;2023-03-14T00:48:18;1.43;;;0.60;;
11960;SDS011;6040;49.358;11.140;2023-03-14T00:50:46;0.77;;;0.60;;
11960;SDS011;6040;49.358;11.140;2023-03-14T00:53:13;0.60;;;0.60;;
11960;SDS011;6040;49.358;11.140;2023-03-14T00:55:40;1.27;;;0.57;;
11960;SDS011;6040;49.358;11.140;2023-03-14T00:58:08;1.27;;;0.60;;
11960;SDS011;6040;49.358;11.140;2023-03-14T01:00:35;0.50;;;0.50;;
11960;SDS011;6040;49.358;11.140;2023-03-14T01:03:03;0.60;;;0.57;;
11960;SDS011;6040;49.358;11.140;2023-03-14T01:05:32;0.50;;;0.50;;
11960;SDS011;6040;49.358;11.140;2023-03-14T01:07:59;0.60;;;0.60;;
11960;SDS011;6040;49.358;11.140;2023-03-14T01:10:26;0.40;;;0.40;;
11960;SDS011;6040;49.358;11.140;2023-03-14T01:12:53;0.60;;;0.60;;
11960;SDS011;6040;49.358;11.140;2023-03-14T01:15:19;0.53;;;0.53;;
11960;SDS011;6040;49.358;11.140;2023-03-14T01:17:47;0.53;;;0.50;;
11960;SDS011;6040;49.358;11.140;2023-03-14T01:20:14;0.70;;;0.70;;
11960;SDS011;6040;49.358;11.140;2023-03-14T01:22:43;0.77;;;0.40;;
11960;SDS011;6040;49.358;11.140;2023-03-14T01:25:11;0.20;;;0.20;;
11960;SDS011;6040;49.358;11.140;2023-03-14T01:27:40;0.60;;;0.60;;
11960;SDS011;6040;49.358;11.140;2023-03-14T01:30:07;0.53;;;0.53;;
11960;SDS011;6040;49.358;11.140;2023-03-14T01:32:35;0.93;;;0.70;;
11960;SDS011;6040;49.358;11.140;2023-03-14T01:35:02;0.40;;;0.40;;
11960;SDS011;6040;49.358;11.140;2023-03-14T01:37:29;1.30;;;0.40;;
11960;SDS011;6040;49.358;11.140;2023-03-14T01:39:57;0.80;;;0.80;;
11960;SDS011;6040;49.358;11.140;2023-03-14T01:42:24;0.73;;;0.73;;
11960;SDS011;6040;49.358;11.140;2023-03-14T01:44:52;0.70;;;0.70;;
11960;SDS011;6040;49.358;11.140;2023-03-14T01:47:20;0.70;;;0.70;;
11960;SDS011;6040;49.358;11.140;2023-03-14T01:49:48;0.60;;;0.60;;
11960;SDS011;6040;49.358;11.140;2023-03-14T01:52:18;0.47;;;0.40;;
11960;SDS011;6040;49.358;11.140;2023-03-14T01:54:49;2.60;;;0.53;;
11960;SDS011;6040;49.358;11.140;2023-03-14T01:57:20;2.23;;;0.60;;
11960;SDS011;6040;49.358;11.140;2023-03-14T01:59:52;0.30;;;0.30;;
11960;SDS011;6040;49.358;11.140;2023-03-14T02:02:22;0.60;;;0.37;;
11960;SDS011;6040;49.358;11.140;2023-03-14T02:04:52;0.80;;;0.80;;
11960;SDS011;6040;49.358;11.140;2023-03-14T02:07:20;0.70;;;0.70;;
11960;SDS011;6040;49.358;11.140;2023-03-14T02:09:51;1.20;;;1.00;;
11960;SDS011;6040;49.358;11.140;2023-03-14T02:12:21;0.70;;;0.70;;
11960;SDS011;6040;49.358;11.140;2023-03-14T02:14:49;0.80;;;0.80;;
11960;SDS011;6040;49.358;11.140;2023-03-14T02:17:17;0.73;;;0.67;;
11960;SDS011;6040;49.358;11.140;2023-03-14T02:19:57;0.30;;;0.30;;
11960;SDS011;6040;49.358;11.140;2023-03-14T02:22:34;0.20;;;0.20;;
11960;SDS011;6040;49.358;11.140;2023-03-14T02:25:04;0.63;;;0.40;;
11960;SDS011;6040;49.358;11.140;2023-03-14T02:27:37;0.27;;;0.27;;
11960;SDS011;6040;49.358;11.140;2023-03-14T02:30:05;1.50;;;0.40;;
11960;SDS011;6040;49.358;11.140;2023-03-14T02:32:36;0.30;;;0.30;;
11960;SDS011;6040;49.358;11.140;2023-03-14T02:35:06;0.87;;;0.30;;
11960;SDS011;6040;49.358;11.140;2023-03-14T02:37:37;1.33;;;0.33;;
11960;SDS011;6040;49.358;11.140;2023-03-14T02:40:08;0.40;;;0.20;;
11960;SDS011;6040;49.358;11.140;2023-03-14T02:42:37;0.10;;;0.10;;
11960;SDS011;6040;49.358;11.140;2023-03-14T02:47:59;0.23;;;0.20;;
11960;SDS011;6040;49.358;11.140;2023-03-14T02:50:29;0.50;;;0.50;;
11960;SDS011;6040;49.358;11.140;2023-03-14T02:52:59;0.30;;;0.30;;
11960;SDS011;6040;49.358;11.140;2023-03-14T02:55:26;0.40;;;0.40;;
11960;SDS011;6040;49.358;11.140;2023-03-14T02:57:54;1.40;;;0.30;;
11960;SDS011;6040;49.358;11.140;2023-03-14T03:00:21;0.13;;;0.13;;
11960;SDS011;6040;49.358;11.140;2023-03-14T03:02:47;1.87;;;1.07;;
11960;SDS011;6040;49.358;11.140;2023-03-14T03:05:14;3.97;;;1.93;;
11960;SDS011;6040;49.358;11.140;2023-03-14T03:07:41;1.90;;;1.30;;
11960;SDS011;6040;49.358;11.140;2023-03-14T03:10:08;6.13;;;2.80;;
11960;SDS011;6040;49.358;11.140;2023-03-14T03:12:36;2.87;;;1.87;;
11960;SDS011;6040;49.358;11.140;2023-03-14T03:15:05;3.73;;;2.03;;
11960;SDS011;6040;49.358;11.140;2023-03-14T03:17:32;3.40;;;2.17;;
11960;SDS011;6040;49.358;11.140;2023-03-14T03:19:59;1.07;;;0.97;;
11960;SDS011;6040;49.358;11.140;2023-03-14T03:22:26;0.50;;;0.50;;
11960;SDS011;6040;49.358;11.140;2023-03-14T03:24:52;0.40;;;0.40;;
11960;SDS011;6040;49.358;11.140;2023-03-14T03:27:19;0.33;;;0.30;;
11960;SDS011;6040;49.358;11.140;2023-03-14T03:29:46;0.50;;;0.50;;
11960;SDS011;6040;49.358;11.140;2023-03-14T03:32:14;1.63;;;0.37;;
11960;SDS011;6040;49.358;11.140;2023-03-14T03:34:42;0.40;;;0.37;;
11960;SDS011;6040;49.358;11.140;2023-03-14T03:37:09;0.37;;;0.30;;
11960;SDS011;6040;49.358;11.140;2023-03-14T03:39:35;0.30;;;0.30;;
11960;SDS011;6040;49.358;11.140;2023-03-14T03:42:02;0.33;;;0.20;;
11960;SDS011;6040;49.358;11.140;2023-03-14T03:44:29;0.57;;;0.40;;
11960;SDS011;6040;49.358;11.140;2023-03-14T03:46:56;1.40;;;0.37;;
11960;SDS011;6040;49.358;11.140;2023-03-14T03:49:27;0.20;;;0.20;;
11960;SDS011;6040;49.358;11.140;2023-03-14T03:51:54;0.60;;;0.30;;
11960;SDS011;6040;49.358;11.140;2023-03-14T03:54:21;0.20;;;0.20;;
11960;SDS011;6040;49.358;11.140;2023-03-14T03:56:48;0.30;;;0.23;;
11960;SDS011;6040;49.358;11.140;2023-03-14T03:59:15;0.30;;;0.30;;
11960;SDS011;6040;49.358;11.140;2023-03-14T04:01:42;0.33;;;0.33;;
11960;SDS011;6040;49.358;11.140;2023-03-14T04:04:09;0.67;;;0.20;;
11960;SDS011;6040;49.358;11.140;2023-03-14T04:06:37;0.40;;;0.40;;
11960;SDS011;6040;49.358;11.140;2023-03-14T04:09:06;0.40;;;0.40;;
11960;SDS011;6040;49.358;11.140;2023-03-14T04:11:34;0.83;;;0.40;;
11960;SDS011;6040;49.358;11.140;2023-03-14T04:14:01;0.30;;;0.30;;
11960;SDS011;6040;49.358;11.140;2023-03-14T04:16:27;0.10;;;0.10;;
11960;SDS011;6040;49.358;11.140;2023-03-14T04:18:56;1.97;;;0.97;;
11960;SDS011;6040;49.358;11.140;2023-03-14T04:21:23;1.00;;;0.90;;
11960;SDS011;6040;49.358;11.140;2023-03-14T04:23:51;1.03;;;0.90;;
11960;SDS011;6040;49.358;11.140;2023-03-14T04:26:18;0.80;;;0.80;;
11960;SDS011;6040;49.358;11.140;2023-03-14T04:28:45;0.67;;;0.67;;
11960;SDS011;6040;49.358;11.140;2023-03-14T04:31:13;1.20;;;0.97;;
11960;SDS011;6040;49.358;11.140;2023-03-14T04:33:41;0.70;;;0.70;;
11960;SDS011;6040;49.358;11.140;2023-03-14T04:36:08;0.80;;;0.80;;
11960;SDS011;6040;49.358;11.140;2023-03-14T04:38:35;1.10;;;0.80;;
11960;SDS011;6040;49.358;11.140;2023-03-14T04:41:04;1.50;;;0.60;;
11960;SDS011;6040;49.358;11.140;2023-03-14T04:43:31;0.20;;;0.20;;
11960;SDS011;6040;49.358;11.140;2023-03-14T04:45:58;0.37;;;0.37;;
11960;SDS011;6040;49.358;11.140;2023-03-14T04:48:26;0.37;;;0.37;;
11960;SDS011;6040;49.358;11.140;2023-03-14T04:50:53;0.40;;;0.40;;
11960;SDS011;6040;49.358;11.140;2023-03-14T04:53:20;1.17;;;0.53;;
11960;SDS011;6040;49.358;11.140;2023-03-14T04:55:47;1.03;;;0.40;;
11960;SDS011;6040;49.358;11.140;2023-03-14T04:58:16;0.30;;;0.30;;
11960;SDS011;6040;49.358;11.140;2023-03-14T05:00:43;0.27;;;0.27;;
11960;SDS011;6040;49.358;11.140;2023-03-14T05:03:09;0.47;;;0.23;;
11960;SDS011;6040;49.358;11.140;2023-03-14T05:05:36;0.60;;;0.30;;
11960;SDS011;6040;49.358;11.140;2023-03-14T05:08:03;0.30;;;0.20;;
11960;SDS011;6040;49.358;11.140;2023-03-14T05:10:30;0.13;;;0.13;;
11960;SDS011;6040;49.358;11.140;2023-03-14T05:12:58;0.37;;;0.37;;
11960;SDS011;6040;49.358;11.140;2023-03-14T05:15:26;0.47;;;0.20;;
11960;SDS011;6040;49.358;11.140;2023-03-14T05:17:53;0.50;;;0.40;;
11960;SDS011;6040;49.358;11.140;2023-03-14T05:20:20;0.87;;;0.37;;
11960;SDS011;6040;49.358;11.140;2023-03-14T05:22:47;0.37;;;0.37;;
11960;SDS011;6040;49.358;11.140;2023-03-14T05:25:14;0.30;;;0.30;;
11960;SDS011;6040;49.358;11.140;2023-03-14T05:27:41;0.80;;;0.30;;
11960;SDS011;6040;49.358;11.140;2023-03-14T05:30:08;0.50;;;0.50;;
11960;SDS011;6040;49.358;11.140;2023-03-14T05:32:37;0.57;;;0.50;;
11960;SDS011;6040;49.358;11.140;2023-03-14T05:35:05;0.30;;;0.30;;
11960;SDS011;6040;49.358;11.140;2023-03-14T05:37:32;2.90;;;0.67;;
11960;SDS011;6040;49.358;11.140;2023-03-14T05:39:59;0.53;;;0.47;;
11960;SDS011;6040;49.358;11.140;2023-03-14T05:42:26;0.40;;;0.40;;
11960;SDS011;6040;49.358;11.140;2023-03-14T05:44:53;0.50;;;0.47;;
11960;SDS011;6040;49.358;11.140;2023-03-14T05:47:19;0.40;;;0.40;;
11960;SDS011;6040;49.358;11.140;2023-03-14T05:49:48;1.13;;;0.60;;
11960;SDS011;6040;49.358;11.140;2023-03-14T05:52:14;0.57;;;0.47;;
11960;SDS011;6040;49.358;11.140;2023-03-14T05:54:41;2.53;;;0.60;;
11960;SDS011;6040;49.358;11.140;2023-03-14T05:57:08;1.20;;;0.50;;
11960;SDS011;6040;49.358;11.140;2023-03-14T05:59:35;0.80;;;0.50;;
11960;SDS011;6040;49.358;11.140;2023-03-14T06:02:02;0.60;;;0.60;;
11960;SDS011;6040;49.358;11.140;2023-03-14T06:04:29;0.80;;;0.70;;
11960;SDS011;6040;49.358;11.140;2023-03-14T06:06:57;4.03;;;0.60;;
11960;SDS011;6040;49.358;11.140;2023-03-14T06:09:24;0.97;;;0.90;;
11960;SDS011;6040;49.358;11.140;2023-03-14T06:11:50;0.80;;;0.80;;
11960;SDS011;6040;49.358;11.140;2023-03-14T06:14:17;0.50;;;0.50;;
11960;SDS011;6040;49.358;11.140;2023-03-14T06:16:44;1.23;;;0.90;;
11960;SDS011;6040;49.358;11.140;2023-03-14T06:19:13;0.93;;;0.80;;
11960;SDS011;6040;49.358;11.140;2023-03-14T06:21:39;0.80;;;0.80;;
11960;SDS011;6040;49.358;11.140;2023-03-14T06:24:08;0.70;;;0.70;;
11960;SDS011;6040;49.358;11.140;2023-03-14T06:26:35;0.97;;;0.80;;
11960;SDS011;6040;49.358;11.140;2023-03-14T06:29:01;1.73;;;0.80;;
11960;SDS011;6040;49.358;11.140;2023-03-14T06:31:28;1.10;;;1.00;;
11960;SDS011;6040;49.358;11.140;2023-03-14T06:33:55;1.07;;;0.80;;
11960;SDS011;6040;49.358;11.140;2023-03-14T06:36:22;0.80;;;0.80;;
11960;SDS011;6040;49.358;11.140;2023-03-14T06:38:49;1.17;;;1.00;;
11960;SDS011;6040;49.358;11.140;2023-03-14T06:41:17;3.13;;;1.00;;
11960;SDS011;6040;49.358;11.140;2023-03-14T06:43:44;0.90;;;0.90;;
11960;SDS011;6040;49.358;11.140;2023-03-14T06:46:11;1.10;;;0.97;;
11960;SDS011;6040;49.358;11.140;2023-03-14T06:48:38;0.90;;;0.90;;
11960;SDS011;6040;49.358;11.140;2023-03-14T06:51:05;3.80;;;1.10;;
11960;SDS011;6040;49.358;11.140;2023-03-14T06:53:32;1.57;;;1.20;;
11960;SDS011;6040;49.358;11.140;2023-03-14T06:55:59;1.23;;;1.13;;
11960;SDS011;6040;49.358;11.140;2023-03-14T06:58:27;1.27;;;1.20;;
11960;SDS011;6040;49.358;11.140;2023-03-14T07:00:54;1.57;;;1.20;;
11960;SDS011;6040;49.358;11.140;2023-03-14T07:03:21;1.23;;;1.13;;
11960;SDS011;6040;49.358;11.140;2023-03-14T07:05:48;3.03;;;1.20;;
11960;SDS011;6040;49.358;11.140;2023-03-14T07:08:15;2.10;;;1.70;;
11960;SDS011;6040;49.358;11.140;2023-03-14T07:10:42;1.53;;;1.20;;
11960;SDS011;6040;49.358;11.140;2023-03-14T07:13:09;1.67;;;1.47;;
11960;SDS011;6040;49.358;11.140;2023-03-14T07:15:37;1.30;;;1.20;;
11960;SDS011;6040;49.358;11.140;2023-03-14T07:18:04;0.90;;;0.90;;
11960;SDS011;6040;49.358;11.140;2023-03-14T07:20:31;0.90;;;0.90;;
11960;SDS011;6040;49.358;11.140;2023-03-14T07:22:58;1.70;;;1.20;;
11960;SDS011;6040;49.358;11.140;2023-03-14T07:25:27;1.37;;;1.27;;
11960;SDS011;6040;49.358;11.140;2023-03-14T07:27:54;1.70;;;1.30;;
11960;SDS011;6040;49.358;11.140;2023-03-14T07:30:21;1.33;;;1.00;;
11960;SDS011;6040;49.358;11.140;2023-03-14T07:32:49;1.50;;;0.80;;
11960;SDS011;6040;49.358;11.140;2023-03-14T07:35:16;1.87;;;0.87;;
11960;SDS011;6040;49.358;11.140;2023-03-14T07:37:43;1.83;;;1.10;;
11960;SDS011;6040;49.358;11.140;2023-03-14T07:40:10;0.97;;;0.90;;
11960;SDS011;6040;49.358;11.140;2023-03-14T07:42:40;1.90;;;1.03;;
11960;SDS011;6040;49.358;11.140;2023-03-14T07:45:07;2.50;;;0.93;;
11960;SDS011;6040;49.358;11.140;2023-03-14T07:47:34;1.23;;;1.10;;
11960;SDS011;6040;49.358;11.140;2023-03-14T07:50:03;1.67;;;1.00;;
11960;SDS011;6040;49.358;11.140;2023-03-14T07:52:30;1.30;;;0.80;;
11960;SDS011;6040;49.358;11.140;2023-03-14T07:54:57;2.60;;;1.00;;
11960;SDS011;6040;49.358;11.140;2023-03-14T07:57:24;1.90;;;1.23;;
11960;SDS011;6040;49.358;11.140;2023-03-14T07:59:51;1.97;;;1.87;;
11960;SDS011;6040;49.358;11.140;2023-03-14T08:02:17;2.80;;;1.30;;
11960;SDS011;6040;49.358;11.140;2023-03-14T08:04:47;1.27;;;1.17;;
11960;SDS011;6040;49.358;11.140;2023-03-14T08:07:15;2.00;;;1.20;;
11960;SDS011;6040;49.358;11.140;2023-03-14T08:09:43;1.43;;;0.97;;
11960;SDS011;6040;49.358;11.140;2023-03-14T08:12:10;1.33;;;1.20;;
11960;SDS011;6040;49.358;11.140;2023-03-14T08:14:37;2.83;;;0.90;;
11960;SDS011;6040;49.358;11.140;2023-03-14T08:17:04;1.27;;;1.17;;
11960;SDS011;6040;49.358;11.140;2023-03-14T08:19:33;1.37;;;1.27;;
11960;SDS011;6040;49.358;11.140;2023-03-14T08:22:00;2.00;;;0.90;;
11960;SDS011;6040;49.358;11.140;2023-03-14T08:24:28;1.20;;;1.00;;
11960;SDS011;6040;49.358;11.140;2023-03-14T08:26:55;1.40;;;0.73;;
11960;SDS011;6040;49.358;11.140;2023-03-14T08:29:22;0.93;;;0.83;;
11960;SDS011;6040;49.358;11.140;2023-03-14T08:31:49;0.80;;;0.70;;
11960;SDS011;6040;49.358;11.140;2023-03-14T08:34:16;1.10;;;1.00;;
11960;SDS011;6040;49.358;11.140;2023-03-14T08:36:43;3.20;;;1.10;;
11960;SDS011;6040;49.358;11.140;2023-03-14T08:39:09;2.47;;;2.00;;
11960;SDS011;6040;49.358;11.140;2023-03-14T08:41:38;1.13;;;1.07;;
11960;SDS011;6040;49.358;11.140;2023-03-14T08:44:07;2.07;;;0.80;;
11960;SDS011;6040;49.358;11.140;2023-03-14T08:46:36;1.43;;;1.10;;
11960;SDS011;6040;49.358;11.140;2023-03-14T08:49:03;0.87;;;0.80;;
11960;SDS011;6040;49.358;11.140;2023-03-14T08:51:30;1.33;;;1.20;;
11960;SDS011;6040;49.358;11.140;2023-03-14T08:53:57;1.07;;;0.97;;
11960;SDS011;6040;49.358;11.140;2023-03-14T08:56:24;3.20;;;1.10;;
11960;SDS011;6040;49.358;11.140;2023-03-14T08:58:52;0.90;;;0.90;;
11960;SDS011;6040;49.358;11.140;2023-03-14T09:01:18;1.13;;;0.87;;
11960;SDS011;6040;49.358;11.140;2023-03-14T09:03:49;2.27;;;0.80;;
11960;SDS011;6040;49.358;11.140;2023-03-14T09:06:16;0.50;;;0.50;;
11960;SDS011;6040;49.358;11.140;2023-03-14T09:08:43;1.00;;;0.90;;
11960;SDS011;6040;49.358;11.140;2023-03-14T09:11:10;1.10;;;1.00;;
11960;SDS011;6040;49.358;11.140;2023-03-14T09:13:37;1.03;;;0.77;;
11960;SDS011;6040;49.358;11.140;2023-03-14T09:16:06;0.73;;;0.73;;
11960;SDS011;6040;49.358;11.140;2023-03-14T09:18:33;0.97;;;0.60;;
11960;SDS011;6040;49.358;11.140;2023-03-14T09:21:00;2.30;;;0.80;;
11960;SDS011;6040;49.358;11.140;2023-03-14T09:23:27;1.17;;;0.60;;
11960;SDS011;6040;49.358;11.140;2023-03-14T09:25:54;1.83;;;1.47;;
11960;SDS011;6040;49.358;11.140;2023-03-14T09:28:21;0.60;;;0.60;;
11960;SDS011;6040;49.358;11.140;2023-03-14T09:30:48;2.93;;;1.07;;
11960;SDS011;6040;49.358;11.140;2023-03-14T09:33:16;1.70;;;0.97;;
11960;SDS011;6040;49.358;11.140;2023-03-14T09:35:44;1.20;;;0.80;;
11960;SDS011;6040;49.358;11.140;2023-03-14T09:38:10;2.73;;;0.60;;
11960;SDS011;6040;49.358;11.140;2023-03-14T09:40:40;1.50;;;0.87;;
11960;SDS011;6040;49.358;11.140;2023-03-14T09:43:08;1.00;;;0.90;;
11960;SDS011;6040;49.358;11.140;2023-03-14T09:45:38;0.97;;;0.87;;
11960;SDS011;6040;49.358;11.140;2023-03-14T09:48:08;1.80;;;0.80;;
11960;SDS011;6040;49.358;11.140;2023-03-14T09:50:41;1.07;;;0.70;;
11960;SDS011;6040;49.358;11.140;2023-03-14T09:53:12;0.63;;;0.57;;
11960;SDS011;6040;49.358;11.140;2023-03-14T09:55:42;0.50;;;0.50;;
11960;SDS011;6040;49.358;11.140;2023-03-14T09:58:11;1.23;;;0.90;;
11960;SDS011;6040;49.358;11.140;2023-03-14T10:00:39;1.57;;;0.70;;
11960;SDS011;6040;49.358;11.140;2023-03-14T10:03:14;2.60;;;1.10;;
11960;SDS011;6040;49.358;11.140;2023-03-14T10:05:52;0.80;;;0.70;;
11960;SDS011;6040;49.358;11.140;2023-03-14T10:08:21;2.07;;;0.60;;
11960;SDS011;6040;49.358;11.140;2023-03-14T10:10:47;4.00;;;1.90;;
11960;SDS011;6040;49.358;11.140;2023-03-14T10:13:15;2.17;;;1.00;;
11960;SDS011;6040;49.358;11.140;2023-03-14T10:15:47;6.37;;;1.00;;
11960;SDS011;6040;49.358;11.140;2023-03-14T10:18:17;2.70;;;0.90;;
11960;SDS011;6040;49.358;11.140;2023-03-14T10:20:45;1.03;;;0.73;;
11960;SDS011;6040;49.358;11.140;2023-03-14T10:23:22;1.00;;;0.70;;
11960;SDS011;6040;49.358;11.140;2023-03-14T10:26:00;0.83;;;0.63;;
11960;SDS011;6040;49.358;11.140;2023-03-14T10:28:32;1.00;;;0.77;;
11960;SDS011;6040;49.358;11.140;2023-03-14T10:31:03;0.97;;;0.80;;
11960;SDS011;6040;49.358;11.140;2023-03-14T10:33:31;2.20;;;0.80;;
11960;SDS011;6040;49.358;11.140;2023-03-14T10:35:59;1.80;;;1.53;;
11960;SDS011;6040;49.358;11.140;2023-03-14T10:38:30;1.87;;;1.37;;
11960;SDS011;6040;49.358;11.140;2023-03-14T10:40:59;2.40;;;1.10;;
11960;SDS011;6040;49.358;11.140;2023-03-14T10:43:26;2.27;;;1.20;;
11960;SDS011;6040;49.358;11.140;2023-03-14T10:45:58;1.33;;;0.70;;
11960;SDS011;6040;49.358;11.140;2023-03-14T10:48:31;4.40;;;0.90;;
11960;SDS011;6040;49.358;11.140;2023-03-14T10:51:03;0.80;;;0.80;;
11960;SDS011;6040;49.358;11.140;2023-03-14T10:53:34;2.93;;;1.70;;
11960;SDS011;6040;49.358;11.140;2023-03-14T10:56:07;2.37;;;1.50;;
11960;SDS011;6040;49.358;11.140;2023-03-14T10:58:38;1.93;;;0.90;;
11960;SDS011;6040;49.358;11.140;2023-03-14T11:01:11;0.83;;;0.60;;
11960;SDS011;6040;49.358;11.140;2023-03-14T11:03:53;0.60;;;0.50;;
11960;SDS011;6040;49.358;11.140;2023-03-14T11:06:25;0.63;;;0.50;;
11960;SDS011;6040;49.358;11.140;2023-03-14T11:09:02;1.67;;;0.90;;
11960;SDS011;6040;49.358;11.140;2023-03-14T11:11:36;2.13;;;1.00;;
11960;SDS011;6040;49.358;11.140;2023-03-14T11:14:11;2.10;;;0.63;;
11960;SDS011;6040;49.358;11.140;2023-03-14T11:16:48;1.93;;;0.43;;
11960;SDS011;6040;49.358;11.140;2023-03-14T11:19:28;1.03;;;0.53;;
11960;SDS011;6040;49.358;11.140;2023-03-14T11:22:06;2.63;;;0.50;;
11960;SDS011;6040;49.358;11.140;2023-03-14T11:24:49;1.50;;;0.53;;
11960;SDS011;6040;49.358;11.140;2023-03-14T11:27:26;1.93;;;0.43;;
11960;SDS011;6040;49.358;11.140;2023-03-14T11:30:01;0.60;;;0.57;;
11960;SDS011;6040;49.358;11.140;2023-03-14T11:32:41;0.83;;;0.80;;
11960;SDS011;6040;49.358;11.140;2023-03-14T11:35:15;2.47;;;0.87;;
11960;SDS011;6040;49.358;11.140;2023-03-14T11:37:45;1.60;;;0.70;;
11960;SDS011;6040;49.358;11.140;2023-03-14T11:40:16;0.70;;;0.50;;
11960;SDS011;6040;49.358;11.140;2023-03-14T11:42:46;1.37;;;0.70;;
11960;SDS011;6040;49.358;11.140;2023-03-14T11:45:18;2.20;;;0.80;;
11960;SDS011;6040;49.358;11.140;2023-03-14T11:47:49;2.03;;;0.60;;
11960;SDS011;6040;49.358;11.140;2023-03-14T11:50:21;1.17;;;0.70;;
11960;SDS011;6040;49.358;11.140;2023-03-14T11:52:52;1.07;;;0.53;;
11960;SDS011;6040;49.358;11.140;2023-03-14T11:55:25;2.50;;;0.70;;
11960;SDS011;6040;49.358;11.140;2023-03-14T11:57:55;1.77;;;0.80;;
11960;SDS011;6040;49.358;11.140;2023-03-14T12:00:27;1.43;;;0.60;;
11960;SDS011;6040;49.358;11.140;2023-03-14T12:02:56;1.50;;;0.60;;
11960;SDS011;6040;49.358;11.140;2023-03-14T12:05:38;1.00;;;0.60;;
11960;SDS011;6040;49.358;11.140;2023-03-14T12:08:30;0.70;;;0.67;;
11960;SDS011;6040;49.358;11.140;2023-03-14T12:11:11;2.30;;;0.70;;
11960;SDS011;6040;49.358;11.140;2023-03-14T12:13:41;1.13;;;0.50;;
11960;SDS011;6040;49.358;11.140;2023-03-14T12:16:20;0.60;;;0.60;;
11960;SDS011;6040;49.358;11.140;2023-03-14T12:18:53;0.93;;;0.50;;
11960;SDS011;6040;49.358;11.140;2023-03-14T12:21:20;0.40;;;0.40;;
11960;SDS011;6040;49.358;11.140;2023-03-14T12:23:49;0.50;;;0.50;;
11960;SDS011;6040;49.358;11.140;2023-03-14T12:26:19;1.80;;;0.53;;
11960;SDS011;6040;49.358;11.140;2023-03-14T12:28:49;0.73;;;0.47;;
11960;SDS011;6040;49.358;11.140;2023-03-14T12:34:02;0.83;;;0.20;;
11960;SDS011;6040;49.358;11.140;2023-03-14T12:36:51;0.43;;;0.40;;
11960;SDS011;6040;49.358;11.140;2023-03-14T12:39:30;0.30;;;0.30;;
11960;SDS011;6040;49.358;11.140;2023-03-14T12:42:05;1.80;;;0.70;;
11960;SDS011;6040;49.358;11.140;2023-03-14T12:44:40;0.70;;;0.60;;
11960;SDS011;6040;49.358;11.140;2023-03-14T12:50:15;0.90;;;0.37;;
11960;SDS011;6040;49.358;11.140;2023-03-14T12:52:49;0.40;;;0.37;;
11960;SDS011;6040;49.358;11.140;2023-03-14T12:55:43;0.40;;;0.33;;
11960;SDS011;6040;49.358;11.140;2023-03-14T12:58:16;0.20;;;0.20;;
11960;SDS011;6040;49.358;11.140;2023-03-14T13:00:50;0.50;;;0.50;;
11960;SDS011;6040;49.358;11.140;2023-03-14T13:03:21;0.73;;;0.63;;
11960;SDS011;6040;49.358;11.140;2023-03-14T13:05:52;1.17;;;0.80;;
11960;SDS011;6040;49.358;11.140;2023-03-14T13:08:34;0.93;;;0.40;;
11960;SDS011;6040;49.358;11.140;2023-03-14T13:11:04;1.20;;;0.83;;
11960;SDS011;6040;49.358;11.140;2023-03-14T13:13:35;0.40;;;0.40;;
11960;SDS011;6040;49.358;11.140;2023-03-14T13:16:09;0.73;;;0.40;;
11960;SDS011;6040;49.358;11.140;2023-03-14T13:18:41;2.13;;;0.23;;
11960;SDS011;6040;49.358;11.140;2023-03-14T13:21:10;0.83;;;0.50;;
11960;SDS011;6040;49.358;11.140;2023-03-14T13:23:39;0.30;;;0.30;;
11960;SDS011;6040;49.358;11.140;2023-03-14T13:26:09;0.50;;;0.50;;
11960;SDS011;6040;49.358;11.140;2023-03-14T13:28:41;0.60;;;0.47;;
11960;SDS011;6040;49.358;11.140;2023-03-14T13:31:14;0.80;;;0.80;;
11960;SDS011;6040;49.358;11.140;2023-03-14T13:33:55;1.13;;;0.93;;
11960;SDS011;6040;49.358;11.140;2023-03-14T13:36:26;0.50;;;0.50;;
11960;SDS011;6040;49.358;11.140;2023-03-14T13:38:56;0.60;;;0.60;;
11960;SDS011;6040;49.358;11.140;2023-03-14T13:41:24;0.63;;;0.60;;
11960;SDS011;6040;49.358;11.140;2023-03-14T13:43:53;1.57;;;0.70;;
11960;SDS011;6040;49.358;11.140;2023-03-14T13:46:29;1.73;;;1.20;;
11960;SDS011;6040;49.358;11.140;2023-03-14T13:48:57;1.10;;;1.00;;
11960;SDS011;6040;49.358;11.140;2023-03-14T13:51:26;2.90;;;1.40;;
11960;SDS011;6040;49.358;11.140;2023-03-14T13:53:56;1.00;;;0.87;;
11960;SDS011;6040;49.358;11.140;2023-03-14T13:56:25;1.43;;;1.30;;
11960;SDS011;6040;49.358;11.140;2023-03-14T13:58:55;1.00;;;0.93;;
11960;SDS011;6040;49.358;11.140;2023-03-14T14:01:22;2.23;;;1.50;;
11960;SDS011;6040;49.358;11.140;2023-03-14T14:03:52;1.00;;;1.00;;
11960;SDS011;6040;49.358;11.140;2023-03-14T14:06:27;1.87;;;1.70;;
11960;SDS011;6040;49.358;11.140;2023-03-14T14:08:57;4.00;;;1.10;;
11960;SDS011;6040;49.358;11.140;2023-03-14T14:11:32;1.37;;;1.20;;
11960;SDS011;6040;49.358;11.140;2023-03-14T14:14:08;1.63;;;1.53;;
11960;SDS011;6040;49.358;11.140;2023-03-14T14:16:38;2.87;;;2.00;;
11960;SDS011;6040;49.358;11.140;2023-03-14T14:19:06;1.43;;;1.00;;
11960;SDS011;6040;49.358;11.140;2023-03-14T14:21:33;1.67;;;0.70;;
11960;SDS011;6040;49.358;11.140;2023-03-14T14:24:00;2.10;;;1.00;;
11960;SDS011;6040;49.358;11.140;2023-03-14T14:26:27;0.93;;;0.93;;
11960;SDS011;6040;49.358;11.140;2023-03-14T14:29:02;1.33;;;0.50;;
11960;SDS011;6040;49.358;11.140;2023-03-14T14:31:31;0.93;;;0.47;;
11960;SDS011;6040;49.358;11.140;2023-03-14T14:33:58;0.70;;;0.70;;
11960;SDS011;6040;49.358;11.140;2023-03-14T14:36:27;1.53;;;0.50;;
11960;SDS011;6040;49.358;11.140;2023-03-14T14:38:58;0.43;;;0.40;;
11960;SDS011;6040;49.358;11.140;2023-03-14T14:41:26;0.60;;;0.60;;
11960;SDS011;6040;49.358;11.140;2023-03-14T14:43:55;0.83;;;0.70;;
11960;SDS011;6040;49.358;11.140;2023-03-14T14:46:23;1.07;;;0.73;;
11960;SDS011;6040;49.358;11.140;2023-03-14T14:48:56;0.60;;;0.60;;
11960;SDS011;6040;49.358;11.140;2023-03-14T14:51:31;1.43;;;0.80;;
11960;SDS011;6040;49.358;11.140;2023-03-14T14:54:01;0.50;;;0.50;;
11960;SDS011;6040;49.358;11.140;2023-03-14T14:56:34;0.83;;;0.73;;
11960;SDS011;6040;49.358;11.140;2023-03-14T14:59:02;0.70;;;0.70;;
11960;SDS011;6040;49.358;11.140;2023-03-14T15:01:32;0.60;;;0.60;;
11960;SDS011;6040;49.358;11.140;2023-03-14T15:04:03;0.60;;;0.60;;
11960;SDS011;6040;49.358;11.140;2023-03-14T15:06:35;1.03;;;0.87;;
11960;SDS011;6040;49.358;11.140;2023-03-14T15:09:02;0.80;;;0.80;;